createdAt,value
2019-02-23T00:01:00.170Z,15.80
2019-02-23T00:03:41.142Z,15.98
2019-02-23T00:06:29.427Z,12.90
2019-02-23T00:09:05.027Z,13.50
2019-02-23T00:11:46.051Z,13.40
2019-02-23T00:14:26.530Z,14.13
2019-02-23T00:17:07.820Z,14.40
2019-02-23T00:19:48.297Z,13.67
2019-02-23T00:22:29.075Z,21.70
2019-02-23T00:25:09.795Z,11.10
2019-02-23T00:27:50.494Z,12.30
2019-02-23T00:30:30.951Z,12.60
2019-02-23T00:33:11.810Z,12.20
2019-02-23T00:35:52.870Z,14.90
2019-02-23T00:38:33.227Z,16.60
2019-02-23T00:41:14.229Z,15.75
2019-02-23T00:43:55.091Z,16.77
2019-02-23T00:46:35.867Z,13.50
2019-02-23T00:49:16.561Z,14.27
2019-02-23T00:51:56.939Z,15.70
2019-02-23T00:54:37.655Z,14.45
2019-02-23T00:57:18.505Z,13.87
2019-02-23T00:59:59.649Z,13.78
2019-02-23T01:02:40.365Z,16.30
2019-02-23T01:05:21.639Z,12.20
2019-02-23T01:08:01.958Z,12.40
2019-02-23T01:10:42.741Z,12.60
2019-02-23T01:13:23.671Z,14.23
2019-02-23T01:16:04.322Z,12.70
2019-02-23T01:18:45.265Z,12.97
2019-02-23T01:21:26.606Z,12.93
2019-02-23T01:24:06.993Z,12.53
2019-02-23T01:26:47.710Z,15.75
2019-02-23T01:29:28.685Z,17.13
2019-02-23T01:32:09.354Z,13.40
2019-02-23T01:34:49.850Z,14.30
2019-02-23T01:37:31.125Z,13.60
2019-02-23T01:40:12.587Z,13.43
2019-02-23T01:42:53.251Z,14.23
2019-02-23T01:45:42.049Z,15.27
2019-02-23T01:48:16.254Z,15.10
2019-02-23T01:50:57.503Z,11.90
2019-02-23T01:53:38.017Z,12.13
2019-02-23T01:56:18.812Z,12.77
2019-02-23T01:58:59.342Z,12.50
2019-02-23T02:01:40.345Z,12.82
2019-02-23T02:04:21.288Z,15.57
2019-02-23T02:07:01.778Z,15.23
2019-02-23T02:09:42.694Z,15.08
2019-02-23T02:12:24.392Z,13.53
2019-02-23T02:15:04.765Z,17.00
2019-02-23T02:17:45.298Z,19.97
2019-02-23T02:20:26.029Z,14.73
2019-02-23T02:23:07.033Z,15.50
2019-02-23T02:25:47.686Z,15.73
2019-02-23T02:28:29.091Z,14.65
2019-02-23T02:31:09.866Z,14.87
2019-02-23T02:33:50.453Z,15.38
2019-02-23T02:36:31.718Z,15.23
2019-02-23T02:39:12.659Z,22.52
2019-02-23T02:41:53.087Z,15.35
2019-02-23T02:44:33.668Z,15.20
2019-02-23T02:47:14.149Z,16.87
2019-02-23T02:49:54.819Z,12.80
2019-02-23T02:52:35.538Z,15.55
2019-02-23T02:55:16.323Z,12.85
2019-02-23T02:57:56.851Z,15.28
2019-02-23T03:00:37.595Z,16.37
2019-02-23T03:03:18.376Z,16.00
2019-02-23T03:05:59.194Z,15.35
2019-02-23T03:08:39.862Z,13.48
2019-02-23T03:11:20.460Z,13.40
2019-02-23T03:14:01.166Z,12.30
2019-02-23T03:16:42.029Z,15.08
2019-02-23T03:19:22.621Z,13.60
2019-02-23T03:22:03.494Z,16.07
2019-02-23T03:24:44.646Z,14.77
2019-02-23T03:27:25.269Z,14.37
2019-02-23T03:30:06.030Z,14.60
2019-02-23T03:32:47.020Z,13.93
2019-02-23T03:35:27.870Z,15.70
2019-02-23T03:38:08.431Z,15.00
2019-02-23T03:40:49.079Z,13.37
2019-02-23T03:43:29.854Z,14.73
2019-02-23T03:46:10.594Z,14.57
2019-02-23T03:48:51.062Z,16.05
2019-02-23T03:51:31.845Z,13.87
2019-02-23T03:54:12.631Z,18.85
2019-02-23T03:56:53.489Z,16.27
2019-02-23T03:59:34.517Z,15.25
2019-02-23T04:02:15.166Z,14.63
2019-02-23T04:04:56.094Z,13.18
2019-02-23T04:07:37.155Z,16.07
2019-02-23T04:10:17.831Z,14.15
2019-02-23T04:12:58.313Z,12.85
2019-02-23T04:15:39.323Z,12.37
2019-02-23T04:18:19.994Z,15.27
2019-02-23T04:21:02.072Z,16.32
2019-02-23T04:23:43.575Z,16.77
2019-02-23T04:26:24.644Z,13.07
2019-02-23T04:29:05.261Z,15.03
2019-02-23T04:31:45.847Z,13.88
2019-02-23T04:34:26.625Z,17.07
2019-02-23T04:37:07.334Z,18.73
2019-02-23T04:39:47.934Z,17.60
2019-02-23T04:42:28.731Z,19.17
2019-02-23T04:45:09.357Z,21.30
2019-02-23T04:47:49.870Z,16.30
2019-02-23T04:50:31.166Z,21.12
2019-02-23T04:53:11.740Z,20.37
2019-02-23T04:55:52.591Z,22.40
2019-02-23T04:58:33.286Z,23.70
2019-02-23T05:01:14.127Z,21.70
2019-02-23T05:03:54.946Z,20.30
2019-02-23T05:06:35.479Z,20.45
2019-02-23T05:09:16.285Z,20.08
2019-02-23T05:11:57.364Z,17.15
2019-02-23T05:14:38.187Z,18.50
2019-02-23T05:17:18.739Z,17.40
2019-02-23T05:19:59.637Z,18.80
2019-02-23T05:22:40.446Z,21.42
2019-02-23T05:25:21.131Z,17.17
2019-02-23T05:28:01.891Z,19.65
2019-02-23T05:30:42.716Z,17.83
2019-02-23T05:33:23.632Z,17.10
2019-02-23T05:36:04.652Z,18.15
2019-02-23T05:38:46.095Z,18.80
2019-02-23T05:41:26.886Z,18.45
2019-02-23T05:44:07.267Z,17.30
2019-02-23T05:46:48.370Z,21.85
2019-02-23T05:49:28.847Z,22.20
2019-02-23T05:52:09.874Z,23.25
2019-02-23T05:54:50.970Z,24.40
2019-02-23T05:57:31.493Z,21.95
2019-02-23T06:00:12.228Z,18.57
2019-02-23T06:02:52.953Z,18.23
2019-02-23T06:05:33.590Z,22.52
2019-02-23T06:08:14.623Z,17.82
2019-02-23T06:10:55.308Z,19.05
2019-02-23T06:13:35.712Z,19.25
2019-02-23T06:16:17.044Z,20.37
2019-02-23T06:18:58.188Z,20.85
2019-02-23T06:21:52.337Z,23.80
2019-02-23T06:24:21.734Z,20.30
2019-02-23T06:27:04.142Z,21.20
2019-02-23T06:29:45.286Z,23.90
2019-02-23T06:32:26.056Z,19.65
2019-02-23T06:35:06.973Z,20.57
2019-02-23T06:37:47.966Z,19.42
2019-02-23T06:40:28.613Z,21.48
2019-02-23T06:43:09.123Z,21.40
2019-02-23T06:45:49.598Z,24.05
2019-02-23T06:48:30.527Z,25.73
2019-02-23T06:51:11.166Z,22.77
2019-02-23T06:53:52.075Z,21.80
2019-02-23T06:56:32.620Z,23.67
2019-02-23T06:59:13.404Z,19.57
2019-02-23T07:01:56.542Z,23.35
2019-02-23T07:04:36.815Z,22.07
2019-02-23T07:07:17.680Z,23.02
2019-02-23T07:09:58.302Z,25.08
2019-02-23T07:12:39.422Z,22.95
2019-02-23T07:15:20.092Z,22.45
2019-02-23T07:18:00.633Z,27.95
2019-02-23T07:20:44.519Z,24.25
2019-02-23T07:23:23.918Z,30.25
2019-02-23T07:26:04.354Z,22.95
2019-02-23T07:28:45.247Z,25.05
2019-02-23T07:31:25.934Z,27.25
2019-02-23T07:34:06.531Z,26.70
2019-02-23T07:36:47.503Z,29.40
2019-02-23T07:39:28.343Z,23.50
2019-02-23T07:42:09.513Z,26.48
2019-02-23T07:44:50.001Z,29.67
2019-02-23T07:47:30.875Z,26.83
2019-02-23T07:50:11.485Z,27.17
2019-02-23T07:52:52.174Z,27.83
2019-02-23T07:55:32.839Z,28.17
2019-02-23T07:58:13.637Z,29.40
2019-02-23T08:00:54.171Z,29.10
2019-02-23T08:03:35.316Z,29.10
2019-02-23T08:06:15.790Z,25.00
2019-02-23T08:08:56.509Z,26.43
2019-02-23T08:11:37.307Z,27.07
2019-02-23T08:14:17.879Z,24.33
2019-02-23T08:16:58.823Z,26.20
2019-02-23T08:19:39.451Z,26.40
2019-02-23T08:22:20.035Z,24.00
2019-02-23T08:25:00.842Z,24.57
2019-02-23T08:27:41.547Z,28.90
2019-02-23T08:30:22.734Z,28.87
2019-02-23T08:33:03.133Z,27.20
2019-02-23T08:35:43.781Z,26.73
2019-02-23T08:38:24.671Z,27.30
2019-02-23T08:41:05.453Z,22.23
2019-02-23T08:43:46.214Z,22.57
2019-02-23T08:46:26.916Z,25.17
2019-02-23T08:51:32.369Z,17.90
2019-02-23T08:54:12.986Z,18.53
2019-02-23T08:56:55.383Z,19.73
2019-02-23T08:59:36.324Z,19.53
2019-02-23T09:02:16.706Z,19.80
2019-02-23T09:04:57.335Z,18.90
2019-02-23T09:07:38.295Z,21.10
2019-02-23T09:10:18.932Z,18.33
2019-02-23T09:12:59.502Z,17.53
2019-02-23T09:15:40.281Z,18.63
2019-02-23T09:18:21.558Z,18.60
2019-02-23T09:21:02.807Z,16.80
2019-02-23T09:23:43.623Z,19.97
2019-02-23T09:26:24.225Z,16.57
2019-02-23T09:29:05.187Z,19.53
2019-02-23T09:31:45.858Z,16.77
2019-02-23T09:34:26.467Z,18.60
2019-02-23T09:37:07.841Z,19.10
2019-02-23T09:39:48.236Z,15.40
2019-02-23T09:42:29.026Z,21.70
2019-02-23T09:45:09.726Z,17.87
2019-02-23T09:47:51.058Z,18.13
2019-02-23T09:50:31.638Z,17.40
2019-02-23T09:53:12.342Z,17.63
2019-02-23T09:55:53.027Z,17.90
2019-02-23T09:58:33.799Z,21.70
2019-02-23T10:01:14.898Z,19.07
2019-02-23T10:03:55.878Z,18.40
2019-02-23T10:06:36.974Z,18.83
2019-02-23T10:09:17.930Z,21.00
2019-02-23T10:11:58.629Z,21.40
2019-02-23T10:14:39.047Z,21.07
2019-02-23T10:17:20.044Z,24.40
2019-02-23T10:20:00.751Z,21.77
2019-02-23T10:22:41.509Z,20.63
2019-02-23T10:25:22.515Z,19.03
2019-02-23T10:28:03.238Z,18.17
2019-02-23T10:30:44.042Z,24.20
2019-02-23T10:33:24.875Z,19.87
2019-02-23T10:36:05.262Z,14.83
2019-02-23T10:38:45.685Z,19.13
2019-02-23T10:41:26.587Z,15.17
2019-02-23T10:44:07.305Z,22.10
2019-02-23T10:46:48.579Z,17.00
2019-02-23T10:49:29.460Z,22.60
2019-02-23T10:52:10.362Z,15.80
2019-02-23T10:54:51.026Z,17.50
2019-02-23T10:57:32.002Z,16.23
2019-02-23T11:00:18.742Z,18.83
2019-02-23T11:02:59.499Z,15.53
2019-02-23T11:05:40.742Z,14.80
2019-02-23T11:08:21.046Z,14.57
2019-02-23T11:11:01.822Z,17.93
2019-02-23T11:13:42.603Z,18.37
2019-02-23T11:16:23.033Z,13.50
2019-02-23T11:19:03.870Z,13.57
2019-02-23T11:21:44.712Z,13.87
2019-02-23T11:24:25.838Z,12.03
2019-02-23T11:27:06.612Z,16.60
2019-02-23T11:29:47.586Z,16.30
2019-02-23T11:32:28.275Z,16.20
2019-02-23T11:35:09.148Z,17.20
2019-02-23T11:37:50.107Z,15.30
2019-02-23T11:40:30.891Z,16.47
2019-02-23T11:43:11.860Z,15.47
2019-02-23T11:45:52.616Z,15.80
2019-02-23T11:48:33.511Z,16.60
2019-02-23T11:51:13.884Z,16.47
2019-02-23T11:53:55.373Z,15.37
2019-02-23T11:56:36.186Z,15.27
2019-02-23T11:59:17.187Z,19.33
2019-02-23T12:01:57.642Z,18.23
2019-02-23T12:04:38.335Z,17.13
2019-02-23T12:07:19.943Z,18.67
2019-02-23T12:10:00.907Z,18.37
2019-02-23T12:12:42.071Z,17.30
2019-02-23T12:15:22.513Z,14.63
2019-02-23T12:18:02.985Z,15.10
2019-02-23T12:20:43.808Z,15.43
2019-02-23T12:23:24.925Z,15.00
2019-02-23T12:26:05.599Z,17.97
2019-02-23T12:28:46.046Z,15.93
2019-02-23T12:31:28.071Z,17.40
2019-02-23T12:34:09.303Z,17.13
2019-02-23T12:36:50.055Z,17.13
2019-02-23T12:39:31.490Z,15.17
2019-02-23T12:42:12.575Z,15.93
2019-02-23T12:44:53.346Z,18.83
2019-02-23T12:47:34.438Z,18.23
2019-02-23T12:50:15.558Z,20.90
2019-02-23T12:52:55.979Z,19.30
2019-02-23T12:55:35.148Z,16.97
2019-02-23T12:58:23.558Z,18.00
2019-02-23T13:01:12.194Z,16.30
2019-02-23T13:04:00.205Z,17.50
2019-02-23T13:06:48.226Z,24.20
2019-02-23T13:09:38.065Z,20.63
2019-02-23T13:12:45.284Z,26.03
2019-02-23T13:15:52.547Z,16.97
2019-02-23T13:19:00.115Z,21.60
2019-02-23T13:22:07.345Z,18.77
2019-02-23T13:25:14.575Z,19.17
2019-02-23T13:27:55.871Z,18.33
2019-02-23T13:30:36.762Z,17.03
2019-02-23T13:33:17.462Z,19.47
2019-02-23T13:35:58.104Z,19.20
2019-02-23T13:38:38.659Z,19.83
2019-02-23T13:41:19.262Z,18.53
2019-02-23T13:43:59.695Z,17.87
2019-02-23T13:46:40.408Z,18.40
2019-02-23T13:49:20.992Z,19.37
2019-02-23T13:52:01.765Z,19.77
2019-02-23T13:54:42.345Z,16.73
2019-02-23T13:57:23.193Z,18.13
2019-02-23T14:00:03.880Z,15.90
2019-02-23T14:02:45.239Z,17.30
2019-02-23T14:05:26.522Z,19.67
2019-02-23T14:08:07.379Z,16.47
2019-02-23T14:10:47.977Z,17.70
2019-02-23T14:13:28.481Z,17.60
2019-02-23T14:16:09.603Z,17.57
2019-02-23T14:18:50.186Z,17.10
2019-02-23T14:21:30.654Z,19.73
2019-02-23T14:24:11.616Z,19.00
2019-02-23T14:26:52.356Z,19.83
2019-02-23T14:29:33.860Z,20.27
2019-02-23T14:32:14.395Z,19.50
2019-02-23T14:34:55.345Z,17.50
2019-02-23T14:37:35.938Z,20.07
2019-02-23T14:40:16.952Z,15.80
2019-02-23T14:42:57.983Z,17.03
2019-02-23T14:45:38.897Z,18.97
2019-02-23T14:48:19.701Z,19.73
2019-02-23T14:51:00.532Z,21.90
2019-02-23T14:53:41.214Z,18.47
2019-02-23T14:56:22.246Z,18.70
2019-02-23T14:59:03.125Z,17.57
2019-02-23T15:01:43.630Z,18.23
2019-02-23T15:04:24.155Z,17.60
2019-02-23T15:07:04.970Z,19.13
2019-02-23T15:09:45.344Z,17.73
2019-02-23T15:12:25.970Z,18.40
2019-02-23T15:15:06.953Z,20.80
2019-02-23T15:17:47.399Z,18.17
2019-02-23T15:20:28.146Z,18.83
2019-02-23T15:23:08.906Z,21.17
2019-02-23T15:25:49.637Z,18.10
2019-02-23T15:28:37.948Z,19.70
2019-02-23T15:31:13.525Z,23.63
2019-02-23T15:33:54.586Z,22.00
2019-02-23T15:36:35.795Z,21.70
2019-02-23T15:39:16.134Z,24.20
2019-02-23T15:41:56.934Z,16.77
2019-02-23T15:44:37.611Z,18.60
2019-02-23T15:47:18.467Z,19.13
2019-02-23T15:50:12.247Z,23.50
2019-02-23T15:52:42.246Z,18.33
2019-02-23T15:55:25.948Z,20.80
2019-02-23T15:58:07.791Z,22.90
2019-02-23T16:00:49.423Z,20.03
2019-02-23T16:03:29.913Z,21.77
2019-02-23T16:06:11.198Z,21.80
2019-02-23T16:08:52.331Z,23.90
2019-02-23T16:11:33.183Z,20.03
2019-02-23T16:14:14.244Z,19.47
2019-02-23T16:16:55.032Z,22.40
2019-02-23T16:19:36.020Z,21.53
2019-02-23T16:22:18.695Z,21.73
2019-02-23T16:24:59.347Z,25.90
2019-02-23T16:27:40.366Z,31.10
2019-02-23T16:30:21.074Z,21.93
2019-02-23T16:33:02.478Z,24.40
2019-02-23T16:35:43.614Z,20.97
2019-02-23T16:38:24.455Z,25.87
2019-02-23T16:41:05.742Z,22.60
2019-02-23T16:43:46.414Z,23.90
2019-02-23T16:46:27.277Z,23.30
2019-02-23T16:49:08.480Z,24.30
2019-02-23T16:51:49.134Z,21.60
2019-02-23T16:54:30.765Z,21.53
2019-02-23T16:57:12.311Z,25.40
2019-02-23T16:59:53.627Z,23.17
2019-02-23T17:02:36.101Z,25.73
2019-02-23T17:05:16.671Z,24.80
2019-02-23T17:07:57.696Z,24.00
2019-02-23T17:10:38.538Z,24.90
2019-02-23T17:13:19.802Z,25.20
2019-02-23T17:16:00.875Z,26.60
2019-02-23T17:18:42.157Z,26.53
2019-02-23T17:21:22.995Z,29.67
2019-02-23T17:24:03.671Z,24.37
2019-02-23T17:26:44.484Z,24.57
2019-02-23T17:29:25.930Z,20.53
2019-02-23T17:32:06.528Z,20.50
2019-02-23T17:34:46.983Z,22.73
2019-02-23T17:37:28.167Z,22.10
2019-02-23T17:40:08.938Z,22.77
2019-02-23T17:42:49.613Z,18.83
2019-02-23T17:45:30.275Z,39.70
2019-02-23T17:48:11.455Z,29.60
2019-02-23T17:50:52.441Z,18.90
2019-02-23T17:53:33.391Z,26.77
2019-02-23T17:56:14.688Z,22.87
2019-02-23T17:58:55.768Z,25.20
2019-02-23T18:01:36.606Z,22.83
2019-02-23T18:04:17.998Z,24.80
2019-02-23T18:06:59.087Z,23.40
2019-02-23T18:09:40.052Z,24.33
2019-02-23T18:12:21.126Z,23.77
2019-02-23T18:15:02.473Z,23.83
2019-02-23T18:17:43.619Z,24.60
2019-02-23T18:20:24.406Z,24.10
2019-02-23T18:23:05.525Z,27.87
2019-02-23T18:25:46.508Z,21.10
2019-02-23T18:28:27.194Z,21.83
2019-02-23T18:31:07.727Z,22.57
2019-02-23T18:33:49.065Z,22.77
2019-02-23T18:36:29.377Z,26.03
2019-02-23T18:39:10.541Z,23.60
2019-02-23T18:41:51.750Z,23.83
2019-02-23T18:44:33.099Z,22.80
2019-02-23T18:47:13.994Z,23.83
2019-02-23T18:49:54.586Z,22.07
2019-02-23T18:52:35.848Z,24.87
2019-02-23T18:55:16.525Z,23.43
2019-02-23T18:57:57.543Z,25.70
2019-02-23T19:00:38.551Z,24.10
2019-02-23T19:03:19.731Z,22.50
2019-02-23T19:06:00.803Z,23.80
2019-02-23T19:08:41.318Z,24.03
2019-02-23T19:11:22.324Z,25.23
2019-02-23T19:14:03.555Z,25.87
2019-02-23T19:16:44.690Z,25.67
2019-02-23T19:19:25.519Z,23.93
2019-02-23T19:22:06.977Z,25.33
2019-02-23T19:24:47.430Z,26.50
2019-02-23T19:27:28.455Z,24.37
2019-02-23T19:30:09.677Z,23.40
2019-02-23T19:32:50.408Z,24.30
2019-02-23T19:35:32.025Z,23.10
2019-02-23T19:38:13.204Z,23.43
2019-02-23T19:40:54.150Z,25.33
2019-02-23T19:43:35.456Z,26.63
2019-02-23T19:46:16.182Z,30.20
2019-02-23T19:48:56.714Z,24.80
2019-02-23T19:51:37.863Z,21.93
2019-02-23T19:54:18.984Z,25.03
2019-02-23T19:57:00.572Z,23.57
2019-02-23T19:59:41.751Z,21.43
2019-02-23T20:02:22.575Z,24.17
2019-02-23T20:05:03.349Z,22.37
2019-02-23T20:07:44.437Z,22.20
2019-02-23T20:10:25.156Z,23.80
2019-02-23T20:13:05.808Z,21.90
2019-02-23T20:15:46.679Z,24.40
2019-02-23T20:18:27.414Z,22.00
2019-02-23T20:21:08.366Z,21.57
2019-02-23T20:23:48.758Z,21.83
2019-02-23T20:26:29.840Z,20.43
2019-02-23T20:29:10.224Z,21.53
2019-02-23T20:31:51.060Z,18.40
2019-02-23T20:34:31.807Z,17.77
2019-02-23T20:37:12.704Z,20.77
2019-02-23T20:39:54.362Z,20.67
2019-02-23T20:42:35.744Z,23.30
2019-02-23T20:45:16.652Z,22.00
2019-02-23T20:47:57.940Z,18.43
2019-02-23T20:50:40.188Z,18.40
2019-02-23T20:53:20.995Z,19.63
2019-02-23T20:56:02.268Z,17.83
2019-02-23T20:58:42.947Z,15.83
2019-02-23T21:01:24.357Z,17.63
2019-02-23T21:04:04.873Z,20.67
2019-02-23T21:06:45.260Z,20.67
2019-02-23T21:09:26.489Z,19.03
2019-02-23T21:12:07.729Z,16.77
2019-02-23T21:14:48.606Z,22.83
2019-02-23T21:17:29.411Z,15.80
2019-02-23T21:20:10.121Z,16.10
2019-02-23T21:22:51.101Z,16.57
2019-02-23T21:25:31.527Z,13.97
2019-02-23T21:28:12.124Z,23.53
2019-02-23T21:30:52.595Z,15.43
2019-02-23T21:33:33.446Z,21.03
2019-02-23T21:36:14.344Z,19.50
2019-02-23T21:38:57.904Z,18.07
2019-02-23T21:41:38.459Z,19.30
2019-02-23T21:44:19.325Z,26.13
2019-02-23T21:46:59.788Z,21.20
2019-02-23T21:49:40.827Z,21.67
2019-02-23T21:52:22.286Z,21.57
2019-02-23T21:55:02.831Z,24.03
2019-02-23T21:57:43.693Z,22.93
2019-02-23T22:00:24.628Z,20.53
2019-02-23T22:03:07.101Z,18.40
2019-02-23T22:05:48.626Z,19.65
2019-02-23T22:08:29.836Z,23.80
2019-02-23T22:11:10.735Z,23.93
2019-02-23T22:13:51.341Z,20.37
2019-02-23T22:16:32.235Z,15.80
2019-02-23T22:19:12.509Z,19.23
2019-02-23T22:21:53.031Z,20.83
2019-02-23T22:24:33.992Z,21.57
2019-02-23T22:27:15.640Z,20.07
2019-02-23T22:29:57.181Z,18.73
2019-02-23T22:32:37.720Z,19.20
2019-02-23T22:35:18.648Z,17.60
2019-02-23T22:37:59.422Z,15.97
2019-02-23T22:40:40.049Z,17.03
2019-02-23T22:43:20.957Z,17.27
2019-02-23T22:46:01.546Z,15.03
2019-02-23T22:48:42.393Z,22.07
2019-02-23T22:51:23.039Z,20.37
2019-02-23T22:54:04.507Z,16.53
2019-02-23T22:56:45.411Z,17.87
2019-02-23T22:59:26.005Z,15.50
2019-02-23T23:02:07.039Z,19.80
2019-02-23T23:04:48.293Z,22.53
2019-02-23T23:07:28.914Z,18.00
2019-02-23T23:10:09.693Z,16.80
2019-02-23T23:12:50.137Z,17.13
2019-02-23T23:15:30.839Z,16.70
2019-02-23T23:18:11.463Z,14.63
2019-02-23T23:20:52.051Z,17.45
2019-02-23T23:23:32.837Z,17.67
2019-02-23T23:26:13.446Z,18.40
2019-02-23T23:28:54.067Z,19.00
2019-02-23T23:31:35.002Z,17.57
2019-02-23T23:34:15.860Z,16.43
2019-02-23T23:36:56.814Z,19.80
2019-02-23T23:39:37.666Z,15.90
2019-02-23T23:42:18.726Z,18.90
2019-02-23T23:44:59.303Z,19.20
2019-02-23T23:47:40.115Z,18.23
2019-02-23T23:50:20.786Z,17.13
2019-02-23T23:53:01.518Z,15.20
2019-02-23T23:55:42.677Z,15.53
2019-02-23T23:58:24.172Z,18.07
